createdAt,value
2023-04-05T00:01:26.578Z,97856.03
2023-04-05T00:03:54.628Z,97853.53
2023-04-05T00:06:28.825Z,97847.31
2023-04-05T00:08:55.927Z,97845.31
2023-04-05T00:11:23.065Z,97849.56
2023-04-05T00:13:49.952Z,97853.13
2023-04-05T00:16:17.119Z,97843.53
2023-04-05T00:18:49.768Z,97844.88
2023-04-05T00:21:16.630Z,97840.69
2023-04-05T00:23:45.034Z,97840.50
2023-04-05T00:26:12.436Z,97847.66
2023-04-05T00:28:43.380Z,97845.59
2023-04-05T00:31:10.187Z,97845.13
2023-04-05T00:33:36.696Z,97850.19
2023-04-05T00:36:10.089Z,97849.34
2023-04-05T00:38:36.880Z,97847.50
2023-04-05T00:41:03.632Z,97852.41
2023-04-05T00:43:30.376Z,97856.66
2023-04-05T00:45:57.096Z,97851.66
2023-04-05T00:48:23.945Z,97851.66
2023-04-05T00:50:51.190Z,97844.06
2023-04-05T00:53:21.661Z,97842.03
2023-04-05T00:55:49.418Z,97851.34
2023-04-05T00:58:18.148Z,97844.06
2023-04-05T01:00:48.868Z,97839.25
2023-04-05T01:03:16.990Z,97848.09
2023-04-05T01:05:46.748Z,97843.75
2023-04-05T01:08:31.243Z,97847.31
2023-04-05T01:10:59.500Z,97842.66
2023-04-05T01:13:26.025Z,97850.22
2023-04-05T01:15:52.570Z,97846.25
2023-04-05T01:18:19.305Z,97846.38
2023-04-05T01:20:52.919Z,97837.38
2023-04-05T01:23:30.939Z,97834.09
2023-04-05T01:26:11.864Z,97837.50
2023-04-05T01:28:57.862Z,97835.03
2023-04-05T01:31:32.348Z,97828.53
2023-04-05T01:34:02.148Z,97826.34
2023-04-05T01:36:37.136Z,97832.28
2023-04-05T01:39:05.482Z,97830.25
2023-04-05T01:41:32.007Z,97828.97
2023-04-05T01:43:58.554Z,97827.31
2023-04-05T01:46:25.130Z,97830.88
2023-04-05T01:48:51.698Z,97826.66
2023-04-05T01:51:20.168Z,97828.34
2023-04-05T01:53:46.840Z,97827.81
2023-04-05T01:56:14.139Z,97831.25
2023-04-05T01:58:40.800Z,97825.19
2023-04-05T02:01:07.444Z,97830.56
2023-04-05T02:03:34.987Z,97828.59
2023-04-05T02:06:01.582Z,97835.53
2023-04-05T02:08:28.122Z,97835.31
2023-04-05T02:10:54.728Z,97839.56
2023-04-05T02:13:25.928Z,97833.28
2023-04-05T02:15:52.411Z,97831.72
2023-04-05T02:18:22.323Z,97845.31
2023-04-05T02:20:50.462Z,97834.59
2023-04-05T02:23:18.633Z,97836.00
2023-04-05T02:25:45.437Z,97830.22
2023-04-05T02:28:12.094Z,97828.75
2023-04-05T02:30:39.086Z,97827.31
2023-04-05T02:33:05.822Z,97825.03
2023-04-05T02:35:34.936Z,97828.75
2023-04-05T02:38:01.951Z,97827.56
2023-04-05T02:40:28.433Z,97835.44
2023-04-05T02:42:54.879Z,97831.19
2023-04-05T02:45:21.431Z,97829.78
2023-04-05T02:47:48.940Z,97822.78
2023-04-05T02:50:20.371Z,97824.81
2023-04-05T02:52:48.096Z,97820.19
2023-04-05T02:55:14.850Z,97818.03
2023-04-05T02:57:43.627Z,97821.50
2023-04-05T03:00:46.037Z,97814.06
2023-04-05T03:03:13.027Z,97816.22
2023-04-05T03:05:43.374Z,97822.41
2023-04-05T03:08:18.762Z,97820.63
2023-04-05T03:10:55.542Z,97807.91
2023-04-05T03:13:22.015Z,97816.16
2023-04-05T03:15:53.237Z,97812.41
2023-04-05T03:18:20.590Z,97813.56
2023-04-05T03:20:49.905Z,97809.94
2023-04-05T03:23:20.291Z,97818.50
2023-04-05T03:25:50.623Z,97817.59
2023-04-05T03:28:18.337Z,97809.88
2023-04-05T03:30:49.111Z,97807.44
2023-04-05T03:33:19.305Z,97813.22
2023-04-05T03:35:48.929Z,97812.94
2023-04-05T03:38:15.941Z,97812.50
2023-04-05T03:40:52.117Z,97816.25
2023-04-05T03:43:18.580Z,97820.34
2023-04-05T03:45:45.454Z,97819.16
2023-04-05T03:48:12.140Z,97820.38
2023-04-05T03:50:38.794Z,97823.16
2023-04-05T03:53:05.308Z,97825.94
2023-04-05T03:55:32.342Z,97828.94
2023-04-05T03:58:03.293Z,97832.00
2023-04-05T04:00:34.387Z,97827.56
2023-04-05T04:03:10.423Z,97835.75
2023-04-05T04:05:40.980Z,97834.63
2023-04-05T04:08:09.602Z,97835.19
2023-04-05T04:10:37.186Z,97842.19
2023-04-05T04:13:10.482Z,97838.50
2023-04-05T04:15:36.964Z,97842.94
2023-04-05T04:18:16.153Z,97837.38
2023-04-05T04:21:10.791Z,97837.94
2023-04-05T04:23:57.503Z,97838.34
2023-04-05T04:26:45.521Z,97837.16
2023-04-05T04:29:38.870Z,97842.47
2023-04-05T04:32:51.895Z,97838.69
2023-04-05T04:35:39.586Z,97847.69
2023-04-05T04:38:26.689Z,97848.31
2023-04-05T04:41:02.555Z,97842.19
2023-04-05T04:43:43.662Z,97851.56
2023-04-05T04:46:30.728Z,97856.59
2023-04-05T04:49:06.589Z,97858.03
2023-04-05T04:51:33.441Z,97861.31
2023-04-05T04:53:59.993Z,97853.78
2023-04-05T04:56:27.093Z,97857.06
2023-04-05T04:58:58.116Z,97849.81
2023-04-05T05:01:25.285Z,97852.00
2023-04-05T05:03:52.219Z,97859.47
2023-04-05T05:06:23.617Z,97859.47
2023-04-05T05:08:50.426Z,97862.59
2023-04-05T05:11:16.926Z,97857.31
2023-04-05T05:13:43.450Z,97859.50
2023-04-05T05:16:17.366Z,97865.16
2023-04-05T05:18:45.185Z,97863.09
2023-04-05T05:21:11.889Z,97866.72
2023-04-05T05:23:38.365Z,97870.84
2023-04-05T05:26:04.981Z,97867.81
2023-04-05T05:28:31.473Z,97868.38
2023-04-05T05:30:57.925Z,97866.28
2023-04-05T05:33:25.493Z,97873.22
2023-04-05T05:35:52.609Z,97871.44
2023-04-05T05:38:19.271Z,97874.41
2023-04-05T05:40:45.761Z,97882.66
2023-04-05T05:43:12.248Z,97891.44
2023-04-05T05:45:38.911Z,97881.47
2023-04-05T05:48:05.557Z,97886.72
2023-04-05T05:50:32.953Z,97885.63
2023-04-05T05:53:01.411Z,97889.47
2023-04-05T05:55:28.365Z,97885.88
2023-04-05T05:57:54.896Z,97891.00
2023-04-05T06:00:21.484Z,97891.84
2023-04-05T06:02:48.052Z,97896.13
2023-04-05T06:05:14.783Z,97898.00
2023-04-05T06:07:41.324Z,97894.19
2023-04-05T06:10:08.226Z,97893.94
2023-04-05T06:12:34.860Z,97898.63
2023-04-05T06:15:02.085Z,97893.25
2023-04-05T06:17:28.848Z,97893.09
2023-04-05T06:19:55.636Z,97894.22
2023-04-05T06:22:23.535Z,97891.28
2023-04-05T06:24:50.074Z,97882.09
2023-04-05T06:27:16.617Z,97895.38
2023-04-05T06:29:43.703Z,97888.22
2023-04-05T06:32:10.248Z,97882.03
2023-04-05T06:34:36.893Z,97890.84
2023-04-05T06:37:03.501Z,97885.56
2023-04-05T06:39:30.021Z,97895.47
2023-04-05T06:41:56.669Z,97893.31
2023-04-05T06:44:27.854Z,97896.94
2023-04-05T06:46:54.305Z,97894.94
2023-04-05T06:49:21.222Z,97892.50
2023-04-05T06:51:47.677Z,97890.63
2023-04-05T06:54:16.038Z,97896.63
2023-04-05T06:56:43.317Z,97896.63
2023-04-05T06:59:09.948Z,97900.47
2023-04-05T07:01:36.613Z,97898.59
2023-04-05T07:04:03.176Z,97895.41
2023-04-05T07:06:29.752Z,97900.91
2023-04-05T07:08:56.416Z,97894.97
2023-04-05T07:11:22.883Z,97900.03
2023-04-05T07:13:49.646Z,97908.75
2023-04-05T07:16:18.132Z,97903.59
2023-04-05T07:18:44.983Z,97891.75
2023-04-05T07:21:11.687Z,97894.25
2023-04-05T07:23:38.562Z,97899.66
2023-04-05T07:26:05.213Z,97896.88
2023-04-05T07:28:33.191Z,97897.47
2023-04-05T07:30:59.704Z,97895.50
2023-04-05T07:33:27.129Z,97896.88
2023-04-05T07:35:54.320Z,97898.91
2023-04-05T07:38:21.645Z,97900.84
2023-04-05T07:40:48.702Z,97893.81
2023-04-05T07:43:15.759Z,97891.28
2023-04-05T07:45:42.272Z,97892.38
2023-04-05T07:48:08.715Z,97885.94
2023-04-05T07:50:36.518Z,97896.31
2023-04-05T07:53:03.011Z,97886.66
2023-04-05T07:55:29.521Z,97887.00
2023-04-05T07:57:55.999Z,97878.78
2023-04-05T08:00:23.416Z,97876.53
2023-04-05T08:02:49.883Z,97879.66
2023-04-05T08:05:16.537Z,97879.66
2023-04-05T08:07:43.115Z,97875.63
2023-04-05T08:10:09.885Z,97873.91
2023-04-05T08:12:38.747Z,97865.19
2023-04-05T08:15:05.864Z,97869.47
2023-04-05T08:17:32.388Z,97853.00
2023-04-05T08:19:58.973Z,97860.03
2023-04-05T08:22:27.841Z,97861.19
2023-04-05T08:24:54.341Z,97859.97
2023-04-05T08:27:20.915Z,97862.56
2023-04-05T08:29:47.440Z,97865.41
2023-04-05T08:32:13.904Z,97862.94
2023-04-05T08:34:40.565Z,97860.88
2023-04-05T08:37:07.591Z,97859.66
2023-04-05T08:39:36.863Z,97854.09
2023-04-05T08:42:11.703Z,97861.88
2023-04-05T08:44:40.958Z,97851.66
2023-04-05T08:47:08.546Z,97856.72
2023-04-05T08:49:35.209Z,97851.69
2023-04-05T08:52:02.077Z,97842.47
2023-04-05T08:54:28.583Z,97843.63
2023-04-05T08:56:56.546Z,97839.56
2023-04-05T08:59:23.496Z,97832.25
2023-04-05T09:01:50.286Z,97836.81
2023-04-05T09:04:18.289Z,97830.72
2023-04-05T09:06:45.130Z,97819.97
2023-04-05T09:09:12.027Z,97820.69
2023-04-05T09:11:39.541Z,97825.63
2023-04-05T09:14:06.363Z,97816.06
2023-04-05T09:16:40.641Z,97812.81
2023-04-05T09:19:07.743Z,97810.72
2023-04-05T09:21:52.822Z,97804.31
2023-04-05T09:24:30.196Z,97806.91
2023-04-05T09:27:07.102Z,97803.03
2023-04-05T09:29:33.717Z,97805.00
2023-04-05T09:32:05.287Z,97803.09
2023-04-05T09:34:32.981Z,97797.75
2023-04-05T09:37:00.224Z,97795.16
2023-04-05T09:39:30.530Z,97784.47
2023-04-05T09:42:07.454Z,97782.88
2023-04-05T09:44:56.672Z,97785.16
2023-04-05T09:47:30.923Z,97784.03
2023-04-05T09:50:00.217Z,97777.91
2023-04-05T09:52:28.708Z,97773.22
2023-04-05T09:54:56.712Z,97773.69
2023-04-05T09:57:24.089Z,97766.09
2023-04-05T09:59:50.628Z,97760.63
2023-04-05T10:02:17.208Z,97759.50
2023-04-05T10:04:45.384Z,97757.69
2023-04-05T10:07:21.049Z,97766.63
2023-04-05T10:09:48.519Z,97756.16
2023-04-05T10:12:26.111Z,97751.31
2023-04-05T10:14:52.857Z,97738.47
2023-04-05T10:17:19.284Z,97734.69
2023-04-05T10:20:04.189Z,97728.16
2023-04-05T10:22:36.009Z,97728.38
2023-04-05T10:25:05.694Z,97721.91
2023-04-05T10:27:58.493Z,97719.88
2023-04-05T10:30:25.440Z,97725.31
2023-04-05T10:32:52.051Z,97714.47
2023-04-05T10:35:31.539Z,97706.69
2023-04-05T10:38:04.185Z,97710.13
2023-04-05T10:40:32.738Z,97705.69
2023-04-05T10:43:00.565Z,97695.88
2023-04-05T10:45:27.319Z,97692.50
2023-04-05T10:47:59.273Z,97702.03
2023-04-05T10:50:25.932Z,97697.91
2023-04-05T10:52:53.518Z,97690.16
2023-04-05T10:55:21.518Z,97684.03
2023-04-05T10:57:48.706Z,97693.72
2023-04-05T11:00:15.871Z,97679.81
2023-04-05T11:02:42.566Z,97685.16
2023-04-05T11:05:28.862Z,97678.84
2023-04-05T11:07:59.620Z,97680.41
2023-04-05T11:10:26.626Z,97673.00
2023-04-05T11:12:53.089Z,97662.81
2023-04-05T11:15:37.939Z,97662.38
2023-04-05T11:18:16.671Z,97657.78
2023-04-05T11:20:44.610Z,97663.78
2023-04-05T11:23:11.874Z,97652.88
2023-04-05T11:25:40.336Z,97655.94
2023-04-05T11:28:08.561Z,97654.97
2023-04-05T11:30:56.648Z,97653.56
2023-04-05T11:33:39.747Z,97651.59
2023-04-05T11:36:06.929Z,97649.25
2023-04-05T11:38:33.757Z,97645.50
2023-04-05T11:41:07.699Z,97651.53
2023-04-05T11:43:38.361Z,97646.16
2023-04-05T11:46:05.301Z,97642.66
2023-04-05T11:48:31.856Z,97640.66
2023-04-05T11:50:58.458Z,97635.66
2023-04-05T11:53:24.945Z,97632.09
2023-04-05T11:55:51.726Z,97633.03
2023-04-05T11:58:21.246Z,97625.78
2023-04-05T12:00:56.699Z,97619.34
2023-04-05T12:03:23.219Z,97623.22
2023-04-05T12:05:50.973Z,97622.09
2023-04-05T12:08:18.287Z,97621.81
2023-04-05T12:10:45.091Z,97615.53
2023-04-05T12:13:11.639Z,97618.97
2023-04-05T12:15:40.738Z,97611.94
2023-04-05T12:18:13.138Z,97608.91
2023-04-05T12:20:39.894Z,97609.53
2023-04-05T12:23:06.672Z,97609.41
2023-04-05T12:25:33.413Z,97604.84
2023-04-05T12:28:07.111Z,97610.41
2023-04-05T12:30:36.613Z,97613.06
2023-04-05T12:33:12.112Z,97601.91
2023-04-05T12:35:39.214Z,97605.25
2023-04-05T12:38:06.196Z,97596.75
2023-04-05T12:40:36.250Z,97594.19
2023-04-05T12:43:06.726Z,97592.88
2023-04-05T12:45:44.122Z,97594.22
2023-04-05T12:48:15.062Z,97598.19
2023-04-05T12:50:45.478Z,97587.50
2023-04-05T12:53:23.288Z,97587.69
2023-04-05T12:55:51.216Z,97575.09
2023-04-05T12:58:18.232Z,97575.63
2023-04-05T13:00:45.351Z,97562.13
2023-04-05T13:03:16.339Z,97566.66
2023-04-05T13:05:43.066Z,97554.97
2023-04-05T13:08:09.704Z,97559.28
2023-04-05T13:10:36.181Z,97553.84
2023-04-05T13:13:02.767Z,97556.75
2023-04-05T13:15:29.193Z,97562.22
2023-04-05T13:17:55.866Z,97559.63
2023-04-05T13:20:22.614Z,97555.91
2023-04-05T13:22:49.039Z,97550.81
2023-04-05T13:25:15.666Z,97548.53
2023-04-05T13:27:42.223Z,97554.72
2023-04-05T13:30:09.216Z,97553.53
2023-04-05T13:32:36.065Z,97547.94
2023-04-05T13:35:02.811Z,97536.06
2023-04-05T13:37:29.318Z,97542.66
2023-04-05T13:39:55.841Z,97537.28
2023-04-05T13:42:23.159Z,97545.63
2023-04-05T13:44:49.764Z,97546.66
2023-04-05T13:47:16.282Z,97548.47
2023-04-05T13:49:43.069Z,97546.47
2023-04-05T13:52:09.652Z,97535.69
2023-04-05T13:54:36.107Z,97534.31
2023-04-05T13:57:02.595Z,97535.00
2023-04-05T13:59:29.240Z,97533.66
2023-04-05T14:01:55.933Z,97534.69
2023-04-05T14:04:22.580Z,97535.31
2023-04-05T14:06:49.076Z,97527.94
2023-04-05T14:09:15.951Z,97524.81
2023-04-05T14:11:42.475Z,97525.91
2023-04-05T14:14:08.944Z,97525.47
2023-04-05T14:16:36.736Z,97526.56
2023-04-05T14:19:03.406Z,97529.44
2023-04-05T14:21:29.991Z,97534.44
2023-04-05T14:23:57.916Z,97528.94
2023-04-05T14:26:26.206Z,97519.16
2023-04-05T14:28:53.292Z,97516.72
2023-04-05T14:31:20.138Z,97515.16
2023-04-05T14:33:46.759Z,97524.41
2023-04-05T14:36:13.295Z,97521.84
2023-04-05T14:38:39.979Z,97517.19
2023-04-05T14:41:06.694Z,97522.75
2023-04-05T14:43:33.552Z,97510.66
2023-04-05T14:46:00.291Z,97519.47
2023-04-05T14:48:28.067Z,97508.56
2023-04-05T14:50:54.640Z,97519.41
2023-04-05T14:53:22.741Z,97517.53
2023-04-05T14:55:49.352Z,97518.97
2023-04-05T14:58:16.893Z,97517.97
2023-04-05T15:00:44.402Z,97518.81
2023-04-05T15:03:11.060Z,97519.56
2023-04-05T15:05:37.635Z,97518.00
2023-04-05T15:08:04.203Z,97519.19
2023-04-05T15:10:30.822Z,97531.13
2023-04-05T15:12:57.563Z,97515.34
2023-04-05T15:15:24.110Z,97522.19
2023-04-05T15:17:50.992Z,97520.41
2023-04-05T15:20:17.562Z,97516.78
2023-04-05T15:22:44.130Z,97520.47
2023-04-05T15:25:11.118Z,97521.25
2023-04-05T15:27:37.744Z,97526.91
2023-04-05T15:30:04.535Z,97529.28
2023-04-05T15:32:33.826Z,97527.25
2023-04-05T15:35:01.044Z,97525.56
2023-04-05T15:37:28.148Z,97528.09
2023-04-05T15:39:54.733Z,97533.34
2023-04-05T15:42:24.253Z,97530.44
2023-04-05T15:44:51.395Z,97533.00
2023-04-05T15:47:18.490Z,97534.53
2023-04-05T15:49:45.127Z,97532.69
2023-04-05T15:52:11.733Z,97530.34
2023-04-05T15:54:38.360Z,97532.31
2023-04-05T15:57:04.925Z,97532.34
2023-04-05T15:59:31.602Z,97543.13
2023-04-05T16:01:58.250Z,97530.59
2023-04-05T16:04:27.086Z,97526.91
2023-04-05T16:06:54.572Z,97540.47
2023-04-05T16:09:21.155Z,97542.09
2023-04-05T16:11:47.760Z,97539.19
2023-04-05T16:14:14.320Z,97543.66
2023-04-05T16:16:50.101Z,97541.75
2023-04-05T16:19:20.076Z,97555.03
2023-04-05T16:21:46.595Z,97548.00
2023-04-05T16:24:13.148Z,97556.38
2023-04-05T16:26:39.795Z,97561.63
2023-04-05T16:29:06.404Z,97549.66
2023-04-05T16:31:33.095Z,97555.09
2023-04-05T16:33:59.747Z,97563.38
2023-04-05T16:36:27.516Z,97566.25
2023-04-05T16:38:54.033Z,97565.78
2023-04-05T16:41:20.700Z,97570.63
2023-04-05T16:43:47.243Z,97579.16
2023-04-05T16:46:13.958Z,97577.50
2023-04-05T16:48:40.934Z,97579.94
2023-04-05T16:51:07.513Z,97583.22
2023-04-05T16:53:34.318Z,97585.94
2023-04-05T16:56:01.040Z,97582.44
2023-04-05T16:58:27.553Z,97588.25
2023-04-05T17:00:58.710Z,97597.88
2023-04-05T17:03:25.902Z,97591.50
2023-04-05T17:05:52.653Z,97595.03
2023-04-05T17:08:19.325Z,97594.50
2023-04-05T17:10:45.926Z,97603.38
2023-04-05T17:13:12.465Z,97601.00
2023-04-05T17:15:39.036Z,97604.53
2023-04-05T17:18:06.355Z,97602.69
2023-04-05T17:20:33.175Z,97611.09
2023-04-05T17:23:00.894Z,97613.97
2023-04-05T17:25:27.489Z,97611.28
2023-04-05T17:27:54.082Z,97615.22
2023-04-05T17:30:20.680Z,97622.78
2023-04-05T17:32:47.517Z,97623.34
2023-04-05T17:35:14.351Z,97625.56
2023-04-05T17:37:40.976Z,97625.53
2023-04-05T17:40:07.847Z,97633.69
2023-04-05T17:42:34.671Z,97631.75
2023-04-05T17:45:01.425Z,97634.84
2023-04-05T17:47:28.097Z,97638.75
2023-04-05T17:49:54.749Z,97646.16
2023-04-05T17:52:22.608Z,97644.09
2023-04-05T17:54:49.223Z,97650.91
2023-04-05T17:57:15.954Z,97660.69
2023-04-05T17:59:42.821Z,97657.19
2023-04-05T18:02:13.232Z,97662.06
2023-04-05T18:04:40.334Z,97664.03
2023-04-05T18:07:07.469Z,97672.06
2023-04-05T18:09:34.641Z,97673.28
2023-04-05T18:12:02.303Z,97681.22
2023-04-05T18:14:29.079Z,97677.88
2023-04-05T18:16:55.614Z,97691.19
2023-04-05T18:19:22.190Z,97695.53
2023-04-05T18:21:48.665Z,97701.56
2023-04-05T18:24:15.470Z,97708.28
2023-04-05T18:26:42.122Z,97708.53
2023-04-05T18:29:08.700Z,97717.56
2023-04-05T18:31:35.279Z,97718.06
2023-04-05T18:34:04.782Z,97722.41
2023-04-05T18:36:31.558Z,97721.91
2023-04-05T18:38:59.375Z,97722.19
2023-04-05T18:41:26.784Z,97725.56
2023-04-05T18:43:57.247Z,97736.28
2023-04-05T18:46:23.922Z,97736.31
2023-04-05T18:48:57.646Z,97738.03
2023-04-05T18:51:24.666Z,97748.94
2023-04-05T18:53:51.354Z,97739.22
2023-04-05T18:56:17.941Z,97748.84
2023-04-05T18:58:45.378Z,97756.00
2023-04-05T19:01:14.396Z,97762.81
2023-04-05T19:03:41.200Z,97756.50
2023-04-05T19:06:07.771Z,97765.22
2023-04-05T19:08:34.314Z,97761.06
2023-04-05T19:11:02.983Z,97763.13
2023-04-05T19:13:29.569Z,97764.19
2023-04-05T19:15:57.051Z,97765.03
2023-04-05T19:18:25.941Z,97768.34
2023-04-05T19:20:59.434Z,97770.47
2023-04-05T19:23:26.742Z,97775.38
2023-04-05T19:25:57.031Z,97778.81
2023-04-05T19:28:24.133Z,97779.25
2023-04-05T19:30:51.045Z,97777.91
2023-04-05T19:33:19.642Z,97787.06
2023-04-05T19:35:47.693Z,97787.91
2023-04-05T19:38:14.300Z,97783.22
2023-04-05T19:40:42.203Z,97792.34
2023-04-05T19:43:09.063Z,97791.88
2023-04-05T19:45:35.825Z,97788.06
2023-04-05T19:48:02.844Z,97789.28
2023-04-05T19:50:39.866Z,97789.91
2023-04-05T19:53:07.284Z,97792.78
2023-04-05T19:55:37.967Z,97792.03
2023-04-05T19:58:08.453Z,97790.31
2023-04-05T20:00:41.217Z,97787.75
2023-04-05T20:03:28.800Z,97791.81
2023-04-05T20:06:01.861Z,97791.75
2023-04-05T20:08:29.061Z,97791.69
2023-04-05T20:10:55.704Z,97794.44
2023-04-05T20:13:22.280Z,97795.38
2023-04-05T20:15:52.656Z,97790.69
2023-04-05T20:18:26.738Z,97802.22
2023-04-05T20:20:54.268Z,97803.34
2023-04-05T20:23:22.481Z,97802.78
2023-04-05T20:25:50.841Z,97802.16
2023-04-05T20:28:34.197Z,97801.31
2023-04-05T20:31:01.567Z,97804.59
2023-04-05T20:33:40.849Z,97806.09
2023-04-05T20:36:11.162Z,97807.94
2023-04-05T20:38:41.510Z,97809.53
2023-04-05T20:41:08.733Z,97810.56
2023-04-05T20:43:35.626Z,97800.38
2023-04-05T20:46:03.205Z,97801.41
2023-04-05T20:48:30.170Z,97807.59
2023-04-05T20:50:57.353Z,97809.97
2023-04-05T20:53:24.240Z,97805.25
2023-04-05T20:55:51.133Z,97807.03
2023-04-05T20:58:17.716Z,97808.94
2023-04-05T21:00:44.310Z,97812.69
2023-04-05T21:03:11.759Z,97811.69
2023-04-05T21:05:38.691Z,97815.28
2023-04-05T21:08:05.401Z,97813.72
2023-04-05T21:10:32.767Z,97820.34
2023-04-05T21:12:59.581Z,97809.25
2023-04-05T21:15:32.128Z,97814.50
2023-04-05T21:18:01.844Z,97813.56
2023-04-05T21:20:28.871Z,97807.69
2023-04-05T21:22:56.244Z,97819.28
2023-04-05T21:25:22.831Z,97824.81
2023-04-05T21:27:49.449Z,97817.97
2023-04-05T21:30:16.582Z,97816.16
2023-04-05T21:32:43.644Z,97810.22
2023-04-05T21:35:10.635Z,97805.56
2023-04-05T21:37:37.243Z,97809.28
2023-04-05T21:40:04.389Z,97810.59
2023-04-05T21:42:31.509Z,97805.47
2023-04-05T21:44:58.075Z,97804.34
2023-04-05T21:47:24.845Z,97810.47
2023-04-05T21:49:52.888Z,97807.72
2023-04-05T21:52:19.575Z,97810.06
2023-04-05T21:54:46.360Z,97800.53
2023-04-05T21:57:12.875Z,97810.94
2023-04-05T21:59:39.443Z,97806.25
2023-04-05T22:02:06.919Z,97800.94
2023-04-05T22:04:33.581Z,97805.69
2023-04-05T22:07:00.308Z,97810.34
2023-04-05T22:09:28.164Z,97803.31
2023-04-05T22:11:55.158Z,97806.81
2023-04-05T22:14:21.783Z,97801.69
2023-04-05T22:16:48.361Z,97799.41
2023-04-05T22:19:14.991Z,97804.13
2023-04-05T22:21:41.953Z,97807.38
2023-04-05T22:24:09.301Z,97801.84
2023-04-05T22:26:36.198Z,97806.78
2023-04-05T22:29:02.973Z,97801.13
2023-04-05T22:31:29.718Z,97800.72
2023-04-05T22:33:56.365Z,97803.13
2023-04-05T22:36:22.855Z,97798.44
2023-04-05T22:38:49.994Z,97793.88
2023-04-05T22:41:17.745Z,97796.88
2023-04-05T22:43:44.214Z,97806.16
2023-04-05T22:46:10.873Z,97795.78
2023-04-05T22:48:37.609Z,97799.47
2023-04-05T22:51:04.167Z,97797.28
2023-04-05T22:53:30.750Z,97802.66
2023-04-05T22:55:57.262Z,97801.81
2023-04-05T22:58:23.844Z,97802.88
2023-04-05T23:00:50.446Z,97801.28
2023-04-05T23:03:16.953Z,97797.22
2023-04-05T23:05:43.494Z,97803.59
2023-04-05T23:08:10.040Z,97792.63
2023-04-05T23:10:36.581Z,97800.56
2023-04-05T23:13:03.071Z,97798.28
2023-04-05T23:15:29.694Z,97800.50
2023-04-05T23:17:56.216Z,97803.50
2023-04-05T23:20:22.751Z,97799.97
2023-04-05T23:22:49.271Z,97807.34
2023-04-05T23:25:15.932Z,97799.34
2023-04-05T23:27:42.526Z,97803.84
2023-04-05T23:30:09.250Z,97802.94
2023-04-05T23:32:35.875Z,97799.34
2023-04-05T23:35:02.521Z,97798.50
2023-04-05T23:37:29.026Z,97790.56
2023-04-05T23:39:55.585Z,97791.81
2023-04-05T23:42:22.130Z,97796.19
2023-04-05T23:44:48.682Z,97794.69
2023-04-05T23:47:15.671Z,97785.91
2023-04-05T23:49:42.194Z,97787.31
2023-04-05T23:52:08.709Z,97795.47
2023-04-05T23:54:35.465Z,97788.28
2023-04-05T23:57:02.256Z,97786.22
2023-04-05T23:59:28.852Z,97782.84
